sensor_id;sensor_type;location;lat;lon;timestamp;pressure;altitude;pressure_sealevel;temperature;humidity
81181;BME280;70650;51.408;7.132;2024-01-06T00:00:54;98975.59;;;5.54;96.97
81181;BME280;70650;51.408;7.132;2024-01-06T00:03:19;98981.34;;;5.61;96.67
81181;BME280;70650;51.408;7.132;2024-01-06T00:05:44;98978.31;;;5.52;96.57
81181;BME280;70650;51.408;7.132;2024-01-06T00:08:10;98973.06;;;5.52;96.80
81181;BME280;70650;51.408;7.132;2024-01-06T00:10:35;98975.78;;;5.51;97.19
81181;BME280;70650;51.408;7.132;2024-01-06T00:13:00;98977.22;;;5.56;96.92
81181;BME280;70650;51.408;7.132;2024-01-06T00:15:26;98976.63;;;5.51;96.76
81181;BME280;70650;51.408;7.132;2024-01-06T00:17:51;98981.78;;;5.53;96.65
81181;BME280;70650;51.408;7.132;2024-01-06T00:20:16;98986.19;;;5.52;96.75
81181;BME280;70650;51.408;7.132;2024-01-06T00:22:42;98994.78;;;5.54;96.57
81181;BME280;70650;51.408;7.132;2024-01-06T00:25:09;98996.75;;;5.51;96.70
81181;BME280;70650;51.408;7.132;2024-01-06T00:27:34;99001.66;;;5.57;96.04
81181;BME280;70650;51.408;7.132;2024-01-06T00:30:00;98999.88;;;5.57;96.43
81181;BME280;70650;51.408;7.132;2024-01-06T00:32:25;99010.28;;;5.59;96.17
81181;BME280;70650;51.408;7.132;2024-01-06T00:34:51;99011.31;;;5.56;96.33
81181;BME280;70650;51.408;7.132;2024-01-06T00:37:17;99008.94;;;5.52;96.43
81181;BME280;70650;51.408;7.132;2024-01-06T00:39:43;99014.69;;;5.58;96.24
81181;BME280;70650;51.408;7.132;2024-01-06T00:42:09;99017.22;;;5.60;96.38
81181;BME280;70650;51.408;7.132;2024-01-06T00:44:36;99011.13;;;5.59;96.37
81181;BME280;70650;51.408;7.132;2024-01-06T00:47:02;99017.31;;;5.58;96.37
81181;BME280;70650;51.408;7.132;2024-01-06T00:49:28;99008.75;;;5.55;96.39
81181;BME280;70650;51.408;7.132;2024-01-06T00:51:53;99019.22;;;5.55;96.34
81181;BME280;70650;51.408;7.132;2024-01-06T00:54:18;99022.63;;;5.57;95.96
81181;BME280;70650;51.408;7.132;2024-01-06T00:56:43;99023.47;;;5.57;96.30
81181;BME280;70650;51.408;7.132;2024-01-06T00:59:09;99013.84;;;5.58;96.14
81181;BME280;70650;51.408;7.132;2024-01-06T01:01:34;99021.78;;;5.56;96.24
81181;BME280;70650;51.408;7.132;2024-01-06T01:03:59;99018.06;;;5.61;96.01
81181;BME280;70650;51.408;7.132;2024-01-06T01:06:25;99022.63;;;5.57;96.03
81181;BME280;70650;51.408;7.132;2024-01-06T01:08:50;99024.13;;;5.61;95.96
81181;BME280;70650;51.408;7.132;2024-01-06T01:11:15;99027.44;;;5.65;95.89
81181;BME280;70650;51.408;7.132;2024-01-06T01:13:41;99018.75;;;5.64;95.69
81181;BME280;70650;51.408;7.132;2024-01-06T01:16:06;99016.28;;;5.61;95.88
81181;BME280;70650;51.408;7.132;2024-01-06T01:18:31;99019.91;;;5.58;95.66
81181;BME280;70650;51.408;7.132;2024-01-06T01:20:56;99024.72;;;5.66;95.35
81181;BME280;70650;51.408;7.132;2024-01-06T01:23:22;99031.94;;;5.63;95.83
81181;BME280;70650;51.408;7.132;2024-01-06T01:25:47;99029.81;;;5.69;95.60
81181;BME280;70650;51.408;7.132;2024-01-06T01:28:13;99034.97;;;5.71;95.73
81181;BME280;70650;51.408;7.132;2024-01-06T01:30:38;99031.25;;;5.59;95.79
81181;BME280;70650;51.408;7.132;2024-01-06T01:33:03;99036.69;;;5.56;96.22
81181;BME280;70650;51.408;7.132;2024-01-06T01:35:29;99040.66;;;5.63;96.06
81181;BME280;70650;51.408;7.132;2024-01-06T01:37:54;99050.72;;;5.71;96.12
81181;BME280;70650;51.408;7.132;2024-01-06T01:40:19;99050.31;;;5.63;95.55
81181;BME280;70650;51.408;7.132;2024-01-06T01:42:45;99057.13;;;5.65;96.19
81181;BME280;70650;51.408;7.132;2024-01-06T01:45:10;99049.88;;;5.70;96.40
81181;BME280;70650;51.408;7.132;2024-01-06T01:47:37;99046.56;;;5.67;96.01
81181;BME280;70650;51.408;7.132;2024-01-06T01:52:37;99041.06;;;5.55;96.66
81181;BME280;70650;51.408;7.132;2024-01-06T01:55:04;99052.75;;;5.66;96.48
81181;BME280;70650;51.408;7.132;2024-01-06T01:57:30;99058.81;;;5.66;96.34
81181;BME280;70650;51.408;7.132;2024-01-06T01:59:56;99062.97;;;5.70;96.35
81181;BME280;70650;51.408;7.132;2024-01-06T02:02:22;99066.63;;;5.68;96.11
81181;BME280;70650;51.408;7.132;2024-01-06T02:04:48;99065.09;;;5.64;96.34
81181;BME280;70650;51.408;7.132;2024-01-06T02:07:13;99061.53;;;5.65;96.68
81181;BME280;70650;51.408;7.132;2024-01-06T02:09:38;99058.06;;;5.64;96.46
81181;BME280;70650;51.408;7.132;2024-01-06T02:12:04;99061.03;;;5.58;96.91
81181;BME280;70650;51.408;7.132;2024-01-06T02:14:31;99067.28;;;5.55;96.90
81181;BME280;70650;51.408;7.132;2024-01-06T02:16:57;99060.94;;;5.59;96.81
81181;BME280;70650;51.408;7.132;2024-01-06T02:19:24;99077.47;;;5.62;96.51
81181;BME280;70650;51.408;7.132;2024-01-06T02:21:52;99070.94;;;5.69;96.68
81181;BME280;70650;51.408;7.132;2024-01-06T02:24:18;99068.81;;;5.75;96.83
81181;BME280;70650;51.408;7.132;2024-01-06T02:26:43;99072.72;;;5.68;97.04
81181;BME280;70650;51.408;7.132;2024-01-06T02:29:10;99073.81;;;5.80;96.66
81181;BME280;70650;51.408;7.132;2024-01-06T02:31:35;99085.25;;;5.79;96.59
81181;BME280;70650;51.408;7.132;2024-01-06T02:34:00;99082.38;;;5.68;96.75
81181;BME280;70650;51.408;7.132;2024-01-06T02:36:26;99088.69;;;5.64;97.05
81181;BME280;70650;51.408;7.132;2024-01-06T02:38:51;99091.31;;;5.64;97.18
81181;BME280;70650;51.408;7.132;2024-01-06T02:41:16;99092.16;;;5.64;97.62
81181;BME280;70650;51.408;7.132;2024-01-06T02:43:42;99095.81;;;5.62;97.61
81181;BME280;70650;51.408;7.132;2024-01-06T02:46:07;99106.03;;;5.66;97.60
81181;BME280;70650;51.408;7.132;2024-01-06T02:48:32;99110.59;;;5.63;97.69
81181;BME280;70650;51.408;7.132;2024-01-06T02:50:58;99110.59;;;5.63;97.17
81181;BME280;70650;51.408;7.132;2024-01-06T02:53:24;99107.91;;;5.64;97.04
81181;BME280;70650;51.408;7.132;2024-01-06T02:55:49;99117.34;;;5.67;97.07
81181;BME280;70650;51.408;7.132;2024-01-06T02:58:15;99124.38;;;5.66;97.14
81181;BME280;70650;51.408;7.132;2024-01-06T03:00:40;99127.59;;;5.71;96.71
81181;BME280;70650;51.408;7.132;2024-01-06T03:03:06;99120.44;;;5.75;96.77
81181;BME280;70650;51.408;7.132;2024-01-06T03:05:31;99124.31;;;5.68;96.70
81181;BME280;70650;51.408;7.132;2024-01-06T03:07:56;99126.94;;;5.68;96.80
81181;BME280;70650;51.408;7.132;2024-01-06T03:10:22;99124.81;;;5.58;96.72
81181;BME280;70650;51.408;7.132;2024-01-06T03:12:47;99127.19;;;5.63;96.81
81181;BME280;70650;51.408;7.132;2024-01-06T03:15:14;99126.00;;;5.69;96.92
81181;BME280;70650;51.408;7.132;2024-01-06T03:17:39;99133.69;;;5.72;96.53
81181;BME280;70650;51.408;7.132;2024-01-06T03:20:05;99136.16;;;5.75;96.56
81181;BME280;70650;51.408;7.132;2024-01-06T03:22:30;99138.44;;;5.65;97.03
81181;BME280;70650;51.408;7.132;2024-01-06T03:24:56;99138.66;;;5.61;97.02
81181;BME280;70650;51.408;7.132;2024-01-06T03:27:21;99139.38;;;5.64;97.15
81181;BME280;70650;51.408;7.132;2024-01-06T03:29:46;99143.75;;;5.64;97.51
81181;BME280;70650;51.408;7.132;2024-01-06T03:32:12;99157.03;;;5.61;96.83
81181;BME280;70650;51.408;7.132;2024-01-06T03:34:37;99150.69;;;5.65;96.87
81181;BME280;70650;51.408;7.132;2024-01-06T03:37:03;99158.88;;;5.58;96.60
81181;BME280;70650;51.408;7.132;2024-01-06T03:39:28;99149.00;;;5.64;96.62
81181;BME280;70650;51.408;7.132;2024-01-06T03:41:53;99161.63;;;5.73;96.66
81181;BME280;70650;51.408;7.132;2024-01-06T03:44:19;99166.09;;;5.71;96.55
81181;BME280;70650;51.408;7.132;2024-01-06T03:46:44;99164.75;;;5.64;95.84
81181;BME280;70650;51.408;7.132;2024-01-06T03:49:09;99170.53;;;5.53;94.95
81181;BME280;70650;51.408;7.132;2024-01-06T03:51:34;99178.66;;;5.48;95.19
81181;BME280;70650;51.408;7.132;2024-01-06T03:54:00;99179.72;;;5.44;95.06
81181;BME280;70650;51.408;7.132;2024-01-06T03:56:25;99185.53;;;5.51;95.21
81181;BME280;70650;51.408;7.132;2024-01-06T03:58:50;99186.38;;;5.51;95.06
81181;BME280;70650;51.408;7.132;2024-01-06T04:01:16;99189.03;;;5.50;95.26
81181;BME280;70650;51.408;7.132;2024-01-06T04:03:41;99195.53;;;5.43;94.44
81181;BME280;70650;51.408;7.132;2024-01-06T04:06:07;99192.06;;;5.42;94.31
81181;BME280;70650;51.408;7.132;2024-01-06T04:08:32;99197.94;;;5.47;94.07
81181;BME280;70650;51.408;7.132;2024-01-06T04:10:57;99193.84;;;5.42;93.71
81181;BME280;70650;51.408;7.132;2024-01-06T04:13:23;99203.28;;;5.28;92.87
81181;BME280;70650;51.408;7.132;2024-01-06T04:15:52;99196.03;;;5.16;92.81
81181;BME280;70650;51.408;7.132;2024-01-06T04:18:18;99198.47;;;5.19;92.93
81181;BME280;70650;51.408;7.132;2024-01-06T04:20:43;99201.41;;;5.13;92.68
81181;BME280;70650;51.408;7.132;2024-01-06T04:23:08;99201.81;;;5.23;93.14
81181;BME280;70650;51.408;7.132;2024-01-06T04:25:34;99195.41;;;5.11;92.44
81181;BME280;70650;51.408;7.132;2024-01-06T04:27:59;99205.81;;;5.13;92.89
81181;BME280;70650;51.408;7.132;2024-01-06T04:30:25;99201.09;;;5.19;93.14
81181;BME280;70650;51.408;7.132;2024-01-06T04:32:51;99204.25;;;5.09;93.22
81181;BME280;70650;51.408;7.132;2024-01-06T04:35:16;99208.97;;;5.02;92.79
81181;BME280;70650;51.408;7.132;2024-01-06T04:37:41;99209.09;;;4.99;92.59
81181;BME280;70650;51.408;7.132;2024-01-06T04:40:07;99213.50;;;4.98;91.94
81181;BME280;70650;51.408;7.132;2024-01-06T04:42:33;99223.00;;;5.01;91.17
81181;BME280;70650;51.408;7.132;2024-01-06T04:44:58;99219.88;;;4.93;91.46
81181;BME280;70650;51.408;7.132;2024-01-06T04:47:24;99211.34;;;4.89;90.28
81181;BME280;70650;51.408;7.132;2024-01-06T04:49:49;99215.22;;;4.99;91.00
81181;BME280;70650;51.408;7.132;2024-01-06T04:52:15;99217.84;;;4.99;90.71
81181;BME280;70650;51.408;7.132;2024-01-06T04:54:40;99217.56;;;5.04;90.97
81181;BME280;70650;51.408;7.132;2024-01-06T04:57:05;99231.38;;;4.90;91.35
81181;BME280;70650;51.408;7.132;2024-01-06T04:59:31;99226.84;;;4.75;90.49
81181;BME280;70650;51.408;7.132;2024-01-06T05:01:57;99230.09;;;4.80;90.89
81181;BME280;70650;51.408;7.132;2024-01-06T05:04:23;99232.94;;;4.75;90.50
81181;BME280;70650;51.408;7.132;2024-01-06T05:06:52;99233.13;;;4.90;90.25
81181;BME280;70650;51.408;7.132;2024-01-06T05:09:19;99239.13;;;4.92;90.39
81181;BME280;70650;51.408;7.132;2024-01-06T05:11:45;99242.69;;;4.91;90.54
81181;BME280;70650;51.408;7.132;2024-01-06T05:14:11;99252.72;;;5.00;90.49
81181;BME280;70650;51.408;7.132;2024-01-06T05:16:36;99254.25;;;5.04;89.92
81181;BME280;70650;51.408;7.132;2024-01-06T05:19:02;99247.78;;;4.94;89.54
81181;BME280;70650;51.408;7.132;2024-01-06T05:21:27;99255.72;;;5.10;90.37
81181;BME280;70650;51.408;7.132;2024-01-06T05:23:53;99255.72;;;5.10;90.32
81181;BME280;70650;51.408;7.132;2024-01-06T05:26:18;99254.66;;;5.14;90.11
81181;BME280;70650;51.408;7.132;2024-01-06T05:28:43;99257.66;;;5.06;89.88
81181;BME280;70650;51.408;7.132;2024-01-06T05:31:09;99254.50;;;4.99;89.21
81181;BME280;70650;51.408;7.132;2024-01-06T05:33:34;99256.66;;;5.09;89.98
81181;BME280;70650;51.408;7.132;2024-01-06T05:35:59;99254.00;;;4.91;89.79
81181;BME280;70650;51.408;7.132;2024-01-06T05:38:24;99258.28;;;5.11;89.63
81181;BME280;70650;51.408;7.132;2024-01-06T05:40:50;99264.69;;;5.05;90.16
81181;BME280;70650;51.408;7.132;2024-01-06T05:43:15;99266.38;;;5.07;88.82
81181;BME280;70650;51.408;7.132;2024-01-06T05:45:40;99272.00;;;4.80;88.53
81181;BME280;70650;51.408;7.132;2024-01-06T05:48:09;99266.97;;;4.94;88.88
81181;BME280;70650;51.408;7.132;2024-01-06T05:50:35;99274.66;;;4.97;88.51
81181;BME280;70650;51.408;7.132;2024-01-06T05:53:00;99273.06;;;4.95;89.40
81181;BME280;70650;51.408;7.132;2024-01-06T05:55:25;99287.63;;;5.00;90.18
81181;BME280;70650;51.408;7.132;2024-01-06T05:57:51;99273.88;;;4.78;89.45
81181;BME280;70650;51.408;7.132;2024-01-06T06:00:16;99290.63;;;4.74;89.08
81181;BME280;70650;51.408;7.132;2024-01-06T06:02:42;99295.94;;;4.72;89.44
81181;BME280;70650;51.408;7.132;2024-01-06T06:05:07;99289.88;;;4.72;88.37
81181;BME280;70650;51.408;7.132;2024-01-06T06:07:33;99294.31;;;4.70;88.86
81181;BME280;70650;51.408;7.132;2024-01-06T06:10:05;99295.41;;;4.66;88.67
81181;BME280;70650;51.408;7.132;2024-01-06T06:12:31;99305.72;;;4.69;88.41
81181;BME280;70650;51.408;7.132;2024-01-06T06:14:57;99304.16;;;4.65;88.97
81181;BME280;70650;51.408;7.132;2024-01-06T06:17:22;99303.72;;;4.74;89.11
81181;BME280;70650;51.408;7.132;2024-01-06T06:19:47;99308.53;;;4.83;88.48
81181;BME280;70650;51.408;7.132;2024-01-06T06:22:13;99310.09;;;4.68;88.15
81181;BME280;70650;51.408;7.132;2024-01-06T06:24:38;99311.78;;;4.69;87.89
81181;BME280;70650;51.408;7.132;2024-01-06T06:27:03;99319.44;;;4.74;89.08
81181;BME280;70650;51.408;7.132;2024-01-06T06:29:29;99328.78;;;4.61;89.00
81181;BME280;70650;51.408;7.132;2024-01-06T06:31:54;99325.69;;;4.71;88.88
81181;BME280;70650;51.408;7.132;2024-01-06T06:34:19;99332.44;;;4.75;88.99
81181;BME280;70650;51.408;7.132;2024-01-06T06:36:45;99338.06;;;4.68;88.92
81181;BME280;70650;51.408;7.132;2024-01-06T06:39:11;99345.13;;;4.85;88.60
81181;BME280;70650;51.408;7.132;2024-01-06T06:41:36;99346.19;;;4.62;88.63
81181;BME280;70650;51.408;7.132;2024-01-06T06:44:01;99351.50;;;4.79;88.98
81181;BME280;70650;51.408;7.132;2024-01-06T06:46:27;99350.06;;;4.91;88.51
81181;BME280;70650;51.408;7.132;2024-01-06T06:48:52;99357.53;;;5.00;88.74
81181;BME280;70650;51.408;7.132;2024-01-06T06:51:17;99364.66;;;4.96;88.93
81181;BME280;70650;51.408;7.132;2024-01-06T06:53:43;99364.72;;;4.76;88.92
81181;BME280;70650;51.408;7.132;2024-01-06T06:56:08;99365.44;;;4.79;88.12
81181;BME280;70650;51.408;7.132;2024-01-06T06:58:35;99373.66;;;4.91;88.37
81181;BME280;70650;51.408;7.132;2024-01-06T07:01:00;99372.94;;;4.87;87.59
81181;BME280;70650;51.408;7.132;2024-01-06T07:03:27;99381.81;;;4.85;87.78
81181;BME280;70650;51.408;7.132;2024-01-06T07:05:53;99390.88;;;4.77;87.92
81181;BME280;70650;51.408;7.132;2024-01-06T07:08:18;99400.31;;;4.61;89.25
81181;BME280;70650;51.408;7.132;2024-01-06T07:10:44;99398.00;;;4.55;90.57
81181;BME280;70650;51.408;7.132;2024-01-06T07:13:10;99408.03;;;4.64;90.12
81181;BME280;70650;51.408;7.132;2024-01-06T07:15:35;99411.66;;;4.41;89.58
81181;BME280;70650;51.408;7.132;2024-01-06T07:18:00;99418.47;;;4.45;89.56
81181;BME280;70650;51.408;7.132;2024-01-06T07:20:26;99410.81;;;4.41;90.64
81181;BME280;70650;51.408;7.132;2024-01-06T07:22:51;99420.44;;;4.40;90.97
81181;BME280;70650;51.408;7.132;2024-01-06T07:25:16;99422.97;;;4.42;90.98
81181;BME280;70650;51.408;7.132;2024-01-06T07:27:41;99425.94;;;4.34;91.16
81181;BME280;70650;51.408;7.132;2024-01-06T07:30:07;99428.44;;;4.37;90.48
81181;BME280;70650;51.408;7.132;2024-01-06T07:32:35;99431.31;;;4.31;90.43
81181;BME280;70650;51.408;7.132;2024-01-06T07:35:00;99434.44;;;4.39;90.38
81181;BME280;70650;51.408;7.132;2024-01-06T07:37:25;99438.41;;;4.48;90.43
81181;BME280;70650;51.408;7.132;2024-01-06T07:39:51;99438.84;;;4.39;90.38
81181;BME280;70650;51.408;7.132;2024-01-06T07:42:16;99447.81;;;4.33;90.56
81181;BME280;70650;51.408;7.132;2024-01-06T07:44:42;99447.38;;;4.42;90.79
81181;BME280;70650;51.408;7.132;2024-01-06T07:47:07;99456.69;;;4.49;91.42
81181;BME280;70650;51.408;7.132;2024-01-06T07:49:33;99460.28;;;4.67;91.80
81181;BME280;70650;51.408;7.132;2024-01-06T07:51:58;99458.19;;;4.55;89.67
81181;BME280;70650;51.408;7.132;2024-01-06T07:54:24;99461.47;;;4.60;90.11
81181;BME280;70650;51.408;7.132;2024-01-06T07:56:49;99466.56;;;4.63;90.22
81181;BME280;70650;51.408;7.132;2024-01-06T07:59:14;99467.56;;;4.61;89.55
81181;BME280;70650;51.408;7.132;2024-01-06T08:01:39;99466.91;;;4.56;90.09
81181;BME280;70650;51.408;7.132;2024-01-06T08:04:08;99473.38;;;4.47;90.81
81181;BME280;70650;51.408;7.132;2024-01-06T08:06:33;99474.59;;;4.18;92.08
81181;BME280;70650;51.408;7.132;2024-01-06T08:08:58;99485.81;;;4.21;91.83
81181;BME280;70650;51.408;7.132;2024-01-06T08:11:24;99494.00;;;3.92;92.30
81181;BME280;70650;51.408;7.132;2024-01-06T08:13:49;99499.88;;;3.97;93.31
81181;BME280;70650;51.408;7.132;2024-01-06T08:16:14;99502.28;;;4.03;93.07
81181;BME280;70650;51.408;7.132;2024-01-06T08:18:39;99507.28;;;4.08;93.09
81181;BME280;70650;51.408;7.132;2024-01-06T08:21:05;99504.41;;;3.93;93.05
81181;BME280;70650;51.408;7.132;2024-01-06T08:23:30;99510.59;;;3.91;93.33
81181;BME280;70650;51.408;7.132;2024-01-06T08:25:56;99514.97;;;3.90;93.70
81181;BME280;70650;51.408;7.132;2024-01-06T08:28:22;99523.78;;;4.10;94.10
81181;BME280;70650;51.408;7.132;2024-01-06T08:30:49;99526.53;;;4.07;93.43
81181;BME280;70650;51.408;7.132;2024-01-06T08:33:14;99527.38;;;4.07;93.42
81181;BME280;70650;51.408;7.132;2024-01-06T08:35:40;99532.66;;;4.06;92.73
81181;BME280;70650;51.408;7.132;2024-01-06T08:38:06;99539.06;;;3.98;92.88
81181;BME280;70650;51.408;7.132;2024-01-06T08:40:34;99542.72;;;3.94;92.36
81181;BME280;70650;51.408;7.132;2024-01-06T08:43:00;99546.00;;;3.99;92.24
81181;BME280;70650;51.408;7.132;2024-01-06T08:45:25;99555.19;;;3.88;92.33
81181;BME280;70650;51.408;7.132;2024-01-06T08:47:50;99550.69;;;3.91;91.98
81181;BME280;70650;51.408;7.132;2024-01-06T08:50:16;99557.56;;;3.94;92.23
81181;BME280;70650;51.408;7.132;2024-01-06T08:52:41;99566.59;;;4.07;92.17
81181;BME280;70650;51.408;7.132;2024-01-06T08:55:07;99560.91;;;3.97;92.33
81181;BME280;70650;51.408;7.132;2024-01-06T08:57:33;99572.31;;;3.95;92.44
81181;BME280;70650;51.408;7.132;2024-01-06T08:59:58;99578.41;;;3.95;91.38
81181;BME280;70650;51.408;7.132;2024-01-06T09:02:24;99575.78;;;3.95;91.97
81181;BME280;70650;51.408;7.132;2024-01-06T09:04:49;99576.34;;;3.82;91.95
81181;BME280;70650;51.408;7.132;2024-01-06T09:07:14;99586.81;;;4.04;91.83
81181;BME280;70650;51.408;7.132;2024-01-06T09:09:43;99593.25;;;3.95;91.03
81181;BME280;70650;51.408;7.132;2024-01-06T09:12:09;99591.28;;;3.78;91.65
81181;BME280;70650;51.408;7.132;2024-01-06T09:14:34;99598.03;;;3.84;92.15
81181;BME280;70650;51.408;7.132;2024-01-06T09:16:59;99583.81;;;3.91;91.58
81181;BME280;70650;51.408;7.132;2024-01-06T09:19:24;99601.09;;;3.95;92.25
81181;BME280;70650;51.408;7.132;2024-01-06T09:21:53;99597.31;;;4.02;91.71
81181;BME280;70650;51.408;7.132;2024-01-06T09:24:19;99600.03;;;3.77;91.84
81181;BME280;70650;51.408;7.132;2024-01-06T09:26:44;99618.91;;;3.85;93.42
81181;BME280;70650;51.408;7.132;2024-01-06T09:29:09;99618.13;;;3.83;92.37
81181;BME280;70650;51.408;7.132;2024-01-06T09:31:35;99618.28;;;3.79;92.59
81181;BME280;70650;51.408;7.132;2024-01-06T09:34:01;99614.66;;;3.83;92.83
81181;BME280;70650;51.408;7.132;2024-01-06T09:36:32;99619.81;;;3.84;93.32
81181;BME280;70650;51.408;7.132;2024-01-06T09:38:57;99634.31;;;3.93;92.61
81181;BME280;70650;51.408;7.132;2024-01-06T09:41:23;99626.63;;;3.88;92.37
81181;BME280;70650;51.408;7.132;2024-01-06T09:43:50;99639.16;;;4.04;92.42
81181;BME280;70650;51.408;7.132;2024-01-06T09:46:23;99634.63;;;4.07;92.04
81181;BME280;70650;51.408;7.132;2024-01-06T09:48:51;99640.25;;;3.96;92.21
81181;BME280;70650;51.408;7.132;2024-01-06T09:51:18;99643.97;;;3.91;91.66
81181;BME280;70650;51.408;7.132;2024-01-06T09:54:03;99644.59;;;3.97;92.20
81181;BME280;70650;51.408;7.132;2024-01-06T09:56:31;99657.03;;;3.91;92.42
81181;BME280;70650;51.408;7.132;2024-01-06T09:58:57;99656.81;;;3.97;91.93
81181;BME280;70650;51.408;7.132;2024-01-06T10:01:22;99658.09;;;3.87;92.24
81181;BME280;70650;51.408;7.132;2024-01-06T10:03:48;99665.22;;;4.05;92.06
81181;BME280;70650;51.408;7.132;2024-01-06T10:06:16;99665.22;;;4.05;91.72
81181;BME280;70650;51.408;7.132;2024-01-06T10:08:52;99666.16;;;4.04;91.61
81181;BME280;70650;51.408;7.132;2024-01-06T10:11:22;99672.88;;;3.88;91.88
81181;BME280;70650;51.408;7.132;2024-01-06T10:13:50;99669.50;;;3.84;91.84
81181;BME280;70650;51.408;7.132;2024-01-06T10:16:16;99676.63;;;3.81;91.81
81181;BME280;70650;51.408;7.132;2024-01-06T10:18:43;99683.78;;;3.76;92.29
81181;BME280;70650;51.408;7.132;2024-01-06T10:21:09;99676.78;;;3.76;92.88
81181;BME280;70650;51.408;7.132;2024-01-06T10:23:34;99680.75;;;3.63;92.76
81181;BME280;70650;51.408;7.132;2024-01-06T10:26:01;99688.50;;;3.66;92.71
81181;BME280;70650;51.408;7.132;2024-01-06T10:28:28;99681.72;;;3.60;92.97
81181;BME280;70650;51.408;7.132;2024-01-06T10:30:54;99683.72;;;3.54;93.07
81181;BME280;70650;51.408;7.132;2024-01-06T10:33:21;99682.63;;;3.59;93.78
81181;BME280;70650;51.408;7.132;2024-01-06T10:35:48;99688.78;;;3.58;93.70
81181;BME280;70650;51.408;7.132;2024-01-06T10:38:14;99695.56;;;3.62;93.98
81181;BME280;70650;51.408;7.132;2024-01-06T10:41:02;99696.78;;;3.54;93.35
81181;BME280;70650;51.408;7.132;2024-01-06T10:43:32;99692.63;;;3.48;93.89
81181;BME280;70650;51.408;7.132;2024-01-06T10:46:06;99697.25;;;3.65;94.20
81181;BME280;70650;51.408;7.132;2024-01-06T10:48:36;99692.91;;;3.40;93.53
81181;BME280;70650;51.408;7.132;2024-01-06T10:51:04;99688.19;;;3.50;93.96
81181;BME280;70650;51.408;7.132;2024-01-06T10:53:34;99690.56;;;3.56;93.58
81181;BME280;70650;51.408;7.132;2024-01-06T10:56:03;99689.00;;;3.27;93.61
81181;BME280;70650;51.408;7.132;2024-01-06T10:58:29;99698.63;;;3.50;93.74
81181;BME280;70650;51.408;7.132;2024-01-06T11:00:56;99703.16;;;3.45;93.65
81181;BME280;70650;51.408;7.132;2024-01-06T11:03:22;99703.53;;;3.34;93.28
81181;BME280;70650;51.408;7.132;2024-01-06T11:05:47;99702.56;;;3.12;93.58
81181;BME280;70650;51.408;7.132;2024-01-06T11:08:17;99697.69;;;3.03;93.77
81181;BME280;70650;51.408;7.132;2024-01-06T11:10:43;99698.38;;;3.08;94.32
81181;BME280;70650;51.408;7.132;2024-01-06T11:13:14;99702.69;;;3.09;94.59
81181;BME280;70650;51.408;7.132;2024-01-06T11:15:46;99699.97;;;3.12;94.00
81181;BME280;70650;51.408;7.132;2024-01-06T11:21:17;99710.59;;;3.32;94.18
81181;BME280;70650;51.408;7.132;2024-01-06T11:23:44;99713.50;;;3.23;94.11
81181;BME280;70650;51.408;7.132;2024-01-06T11:26:10;99717.00;;;3.24;93.66
81181;BME280;70650;51.408;7.132;2024-01-06T11:28:48;99707.00;;;3.10;92.89
81181;BME280;70650;51.408;7.132;2024-01-06T11:31:15;99708.63;;;3.14;93.63
81181;BME280;70650;51.408;7.132;2024-01-06T11:33:44;99713.63;;;3.20;93.35
81181;BME280;70650;51.408;7.132;2024-01-06T11:36:14;99709.59;;;3.36;93.10
81181;BME280;70650;51.408;7.132;2024-01-06T11:38:40;99719.13;;;3.37;93.02
81181;BME280;70650;51.408;7.132;2024-01-06T11:41:09;99714.41;;;3.22;93.13
81181;BME280;70650;51.408;7.132;2024-01-06T11:43:40;99712.50;;;3.27;92.55
81181;BME280;70650;51.408;7.132;2024-01-06T11:46:06;99711.22;;;3.14;92.48
81181;BME280;70650;51.408;7.132;2024-01-06T11:48:32;99711.22;;;3.14;92.46
81181;BME280;70650;51.408;7.132;2024-01-06T11:50:58;99708.91;;;3.05;92.96
81181;BME280;70650;51.408;7.132;2024-01-06T11:53:26;99711.59;;;3.03;92.79
81181;BME280;70650;51.408;7.132;2024-01-06T11:55:52;99702.09;;;3.01;92.41
81181;BME280;70650;51.408;7.132;2024-01-06T11:58:17;99710.72;;;3.03;92.21
81181;BME280;70650;51.408;7.132;2024-01-06T12:00:42;99713.34;;;3.03;92.35
81181;BME280;70650;51.408;7.132;2024-01-06T12:03:09;99716.97;;;2.99;91.91
81181;BME280;70650;51.408;7.132;2024-01-06T12:05:35;99721.47;;;3.20;92.70
81181;BME280;70650;51.408;7.132;2024-01-06T12:08:02;99724.44;;;3.34;92.62
81181;BME280;70650;51.408;7.132;2024-01-06T12:10:31;99714.66;;;3.41;91.87
81181;BME280;70650;51.408;7.132;2024-01-06T12:13:00;99722.38;;;3.19;90.84
81181;BME280;70650;51.408;7.132;2024-01-06T12:15:27;99725.25;;;3.36;91.88
81181;BME280;70650;51.408;7.132;2024-01-06T12:17:52;99729.09;;;3.26;90.68
81181;BME280;70650;51.408;7.132;2024-01-06T12:20:18;99730.84;;;3.26;91.00
81181;BME280;70650;51.408;7.132;2024-01-06T12:22:44;99729.72;;;2.81;93.16
81181;BME280;70650;51.408;7.132;2024-01-06T12:25:09;99728.00;;;2.80;92.63
81181;BME280;70650;51.408;7.132;2024-01-06T12:27:35;99734.94;;;2.81;93.00
81181;BME280;70650;51.408;7.132;2024-01-06T12:30:01;99725.97;;;2.90;92.87
81181;BME280;70650;51.408;7.132;2024-01-06T12:32:26;99735.22;;;2.99;93.13
81181;BME280;70650;51.408;7.132;2024-01-06T12:34:51;99731.13;;;2.91;93.33
81181;BME280;70650;51.408;7.132;2024-01-06T12:37:17;99734.63;;;2.64;93.34
81181;BME280;70650;51.408;7.132;2024-01-06T12:39:43;99733.19;;;2.54;93.94
81181;BME280;70650;51.408;7.132;2024-01-06T12:42:10;99736.47;;;2.60;93.53
81181;BME280;70650;51.408;7.132;2024-01-06T12:44:36;99742.19;;;2.72;93.00
81181;BME280;70650;51.408;7.132;2024-01-06T12:47:04;99746.78;;;2.91;93.23
81181;BME280;70650;51.408;7.132;2024-01-06T12:49:29;99742.97;;;3.02;92.77
81181;BME280;70650;51.408;7.132;2024-01-06T12:51:56;99737.97;;;2.96;91.70
81181;BME280;70650;51.408;7.132;2024-01-06T12:54:21;99748.63;;;2.88;91.73
81181;BME280;70650;51.408;7.132;2024-01-06T12:56:46;99749.41;;;2.91;91.84
81181;BME280;70650;51.408;7.132;2024-01-06T12:59:12;99748.09;;;2.78;91.91
81181;BME280;70650;51.408;7.132;2024-01-06T13:01:38;99744.34;;;2.59;92.27
81181;BME280;70650;51.408;7.132;2024-01-06T13:04:04;99756.81;;;2.77;93.08
81181;BME280;70650;51.408;7.132;2024-01-06T13:06:29;99753.06;;;2.86;92.42
81181;BME280;70650;51.408;7.132;2024-01-06T13:08:56;99759.34;;;2.80;92.85